sensor_id;sensor_type;location;lat;lon;timestamp;temperature;humidity
57576;DHT22;43412;-33.800;150.804;2023-04-24T00:02:04;30.40;93.60
57576;DHT22;43412;-33.800;150.804;2023-04-24T00:04:33;29.40;94.30
57576;DHT22;43412;-33.800;150.804;2023-04-24T00:07:00;28.20;95.50
57576;DHT22;43412;-33.800;150.804;2023-04-24T00:09:28;27.90;96.10
57576;DHT22;43412;-33.800;150.804;2023-04-24T00:11:55;27.60;96.50
57576;DHT22;43412;-33.800;150.804;2023-04-24T00:14:23;27.00;97.30
57576;DHT22;43412;-33.800;150.804;2023-04-24T00:16:50;26.40;98.10
57576;DHT22;43412;-33.800;150.804;2023-04-24T00:19:18;26.10;98.50
57576;DHT22;43412;-33.800;150.804;2023-04-24T00:21:48;25.70;98.50
57576;DHT22;43412;-33.800;150.804;2023-04-24T00:24:18;25.20;99.00
57576;DHT22;43412;-33.800;150.804;2023-04-24T00:26:46;24.60;99.90
57576;DHT22;43412;-33.800;150.804;2023-04-24T00:29:13;24.30;99.90
57576;DHT22;43412;-33.800;150.804;2023-04-24T00:31:40;24.00;99.90
57576;DHT22;43412;-33.800;150.804;2023-04-24T00:34:08;23.90;99.90
57576;DHT22;43412;-33.800;150.804;2023-04-24T00:36:35;23.80;99.90
57576;DHT22;43412;-33.800;150.804;2023-04-24T00:39:03;23.80;99.90
57576;DHT22;43412;-33.800;150.804;2023-04-24T00:41:30;23.60;99.90
57576;DHT22;43412;-33.800;150.804;2023-04-24T00:43:58;23.40;99.90
57576;DHT22;43412;-33.800;150.804;2023-04-24T00:46:25;23.40;99.90
57576;DHT22;43412;-33.800;150.804;2023-04-24T00:48:53;23.30;99.90
57576;DHT22;43412;-33.800;150.804;2023-04-24T00:51:20;23.20;99.90
57576;DHT22;43412;-33.800;150.804;2023-04-24T00:53:47;23.20;99.90
57576;DHT22;43412;-33.800;150.804;2023-04-24T00:56:15;23.20;99.90
57576;DHT22;43412;-33.800;150.804;2023-04-24T00:58:43;23.30;99.90
57576;DHT22;43412;-33.800;150.804;2023-04-24T01:01:11;23.50;99.90
57576;DHT22;43412;-33.800;150.804;2023-04-24T01:03:38;23.80;99.90
57576;DHT22;43412;-33.800;150.804;2023-04-24T01:06:07;24.30;99.90
57576;DHT22;43412;-33.800;150.804;2023-04-24T01:08:36;24.40;99.90
57576;DHT22;43412;-33.800;150.804;2023-04-24T01:11:04;24.50;99.90
57576;DHT22;43412;-33.800;150.804;2023-04-24T01:13:32;24.40;99.90
57576;DHT22;43412;-33.800;150.804;2023-04-24T01:16:00;24.40;99.90
57576;DHT22;43412;-33.800;150.804;2023-04-24T01:18:28;25.70;99.90
57576;DHT22;43412;-33.800;150.804;2023-04-24T01:20:58;26.70;99.50
57576;DHT22;43412;-33.800;150.804;2023-04-24T01:23:26;26.70;98.50
57576;DHT22;43412;-33.800;150.804;2023-04-24T01:25:54;26.30;98.60
57576;DHT22;43412;-33.800;150.804;2023-04-24T01:28:22;25.60;99.10
57576;DHT22;43412;-33.800;150.804;2023-04-24T01:30:49;25.20;99.50
57576;DHT22;43412;-33.800;150.804;2023-04-24T01:33:17;25.40;99.90
57576;DHT22;43412;-33.800;150.804;2023-04-24T01:35:45;25.80;99.60
57576;DHT22;43412;-33.800;150.804;2023-04-24T01:38:12;25.50;99.20
57576;DHT22;43412;-33.800;150.804;2023-04-24T01:40:40;25.10;99.20
57576;DHT22;43412;-33.800;150.804;2023-04-24T01:43:07;24.90;99.60
57576;DHT22;43412;-33.800;150.804;2023-04-24T01:45:35;24.60;99.80
57576;DHT22;43412;-33.800;150.804;2023-04-24T01:48:02;24.30;99.90
57576;DHT22;43412;-33.800;150.804;2023-04-24T01:50:29;24.20;99.90
57576;DHT22;43412;-33.800;150.804;2023-04-24T01:52:57;24.10;99.90
57576;DHT22;43412;-33.800;150.804;2023-04-24T01:55:24;24.10;99.90
57576;DHT22;43412;-33.800;150.804;2023-04-24T01:57:53;24.10;99.90
57576;DHT22;43412;-33.800;150.804;2023-04-24T02:00:22;24.20;99.90
57576;DHT22;43412;-33.800;150.804;2023-04-24T02:02:51;24.30;99.90
57576;DHT22;43412;-33.800;150.804;2023-04-24T02:05:18;24.80;99.90
57576;DHT22;43412;-33.800;150.804;2023-04-24T02:07:46;25.80;99.00
57576;DHT22;43412;-33.800;150.804;2023-04-24T02:10:13;26.20;97.60
57576;DHT22;43412;-33.800;150.804;2023-04-24T02:12:41;26.30;97.70
57576;DHT22;43412;-33.800;150.804;2023-04-24T02:15:08;26.30;97.40
57576;DHT22;43412;-33.800;150.804;2023-04-24T02:17:36;25.90;97.60
57576;DHT22;43412;-33.800;150.804;2023-04-24T02:20:04;25.50;97.70
57576;DHT22;43412;-33.800;150.804;2023-04-24T02:22:31;25.90;98.50
57576;DHT22;43412;-33.800;150.804;2023-04-24T02:24:59;26.70;97.60
57576;DHT22;43412;-33.800;150.804;2023-04-24T02:27:26;26.70;97.30
57576;DHT22;43412;-33.800;150.804;2023-04-24T02:29:54;26.40;97.00
57576;DHT22;43412;-33.800;150.804;2023-04-24T02:32:22;26.10;97.20
57576;DHT22;43412;-33.800;150.804;2023-04-24T02:34:49;26.20;97.60
57576;DHT22;43412;-33.800;150.804;2023-04-24T02:37:16;26.00;96.90
57576;DHT22;43412;-33.800;150.804;2023-04-24T02:39:44;25.70;97.40
57576;DHT22;43412;-33.800;150.804;2023-04-24T02:42:11;25.30;97.70
57576;DHT22;43412;-33.800;150.804;2023-04-24T02:44:38;25.00;98.20
57576;DHT22;43412;-33.800;150.804;2023-04-24T02:47:06;24.70;98.60
57576;DHT22;43412;-33.800;150.804;2023-04-24T02:49:34;24.50;98.90
57576;DHT22;43412;-33.800;150.804;2023-04-24T02:52:01;24.40;98.70
57576;DHT22;43412;-33.800;150.804;2023-04-24T02:54:28;24.30;98.40
57576;DHT22;43412;-33.800;150.804;2023-04-24T02:56:56;24.20;98.40
57576;DHT22;43412;-33.800;150.804;2023-04-24T02:59:23;24.20;98.10
57576;DHT22;43412;-33.800;150.804;2023-04-24T03:01:50;24.50;98.00
57576;DHT22;43412;-33.800;150.804;2023-04-24T03:04:18;25.20;97.10
57576;DHT22;43412;-33.800;150.804;2023-04-24T03:06:46;26.20;96.50
57576;DHT22;43412;-33.800;150.804;2023-04-24T03:09:14;27.10;95.50
57576;DHT22;43412;-33.800;150.804;2023-04-24T03:11:41;27.20;95.20
57576;DHT22;43412;-33.800;150.804;2023-04-24T03:14:08;26.90;95.10
57576;DHT22;43412;-33.800;150.804;2023-04-24T03:16:35;26.50;95.00
57576;DHT22;43412;-33.800;150.804;2023-04-24T03:19:03;26.00;95.30
57576;DHT22;43412;-33.800;150.804;2023-04-24T03:21:32;25.50;95.40
57576;DHT22;43412;-33.800;150.804;2023-04-24T03:23:59;25.10;95.70
57576;DHT22;43412;-33.800;150.804;2023-04-24T03:26:27;24.90;95.90
57576;DHT22;43412;-33.800;150.804;2023-04-24T03:28:54;24.60;96.30
57576;DHT22;43412;-33.800;150.804;2023-04-24T03:31:22;24.30;97.90
57576;DHT22;43412;-33.800;150.804;2023-04-24T03:33:50;24.10;99.30
57576;DHT22;43412;-33.800;150.804;2023-04-24T03:36:17;23.90;99.90
57576;DHT22;43412;-33.800;150.804;2023-04-24T03:38:45;23.70;99.90
57576;DHT22;43412;-33.800;150.804;2023-04-24T03:41:13;23.70;99.90
57576;DHT22;43412;-33.800;150.804;2023-04-24T03:43:40;23.60;99.90
57576;DHT22;43412;-33.800;150.804;2023-04-24T03:46:07;23.60;99.90
57576;DHT22;43412;-33.800;150.804;2023-04-24T03:48:36;23.70;99.90
57576;DHT22;43412;-33.800;150.804;2023-04-24T03:51:03;23.70;99.90
57576;DHT22;43412;-33.800;150.804;2023-04-24T03:53:30;23.70;99.90
57576;DHT22;43412;-33.800;150.804;2023-04-24T03:55:58;23.60;99.90
57576;DHT22;43412;-33.800;150.804;2023-04-24T03:58:25;23.60;99.90
57576;DHT22;43412;-33.800;150.804;2023-04-24T04:00:52;23.40;99.90
57576;DHT22;43412;-33.800;150.804;2023-04-24T04:03:20;23.30;99.90
57576;DHT22;43412;-33.800;150.804;2023-04-24T04:05:47;23.20;99.90
57576;DHT22;43412;-33.800;150.804;2023-04-24T04:08:14;23.20;99.90
57576;DHT22;43412;-33.800;150.804;2023-04-24T04:10:42;23.10;99.90
57576;DHT22;43412;-33.800;150.804;2023-04-24T04:13:09;23.00;99.90
57576;DHT22;43412;-33.800;150.804;2023-04-24T04:15:36;22.90;99.90
57576;DHT22;43412;-33.800;150.804;2023-04-24T04:18:04;22.80;99.90
57576;DHT22;43412;-33.800;150.804;2023-04-24T04:20:32;22.80;99.90
57576;DHT22;43412;-33.800;150.804;2023-04-24T04:22:59;22.80;99.90
57576;DHT22;43412;-33.800;150.804;2023-04-24T04:25:27;22.80;99.90
57576;DHT22;43412;-33.800;150.804;2023-04-24T04:27:55;22.80;99.90
57576;DHT22;43412;-33.800;150.804;2023-04-24T04:30:24;22.70;99.90
57576;DHT22;43412;-33.800;150.804;2023-04-24T04:32:52;22.70;99.90
57576;DHT22;43412;-33.800;150.804;2023-04-24T04:35:19;22.60;99.90
57576;DHT22;43412;-33.800;150.804;2023-04-24T04:37:49;22.40;99.90
57576;DHT22;43412;-33.800;150.804;2023-04-24T04:40:18;22.50;99.90
57576;DHT22;43412;-33.800;150.804;2023-04-24T04:42:45;22.40;99.90
57576;DHT22;43412;-33.800;150.804;2023-04-24T04:45:12;22.30;99.90
57576;DHT22;43412;-33.800;150.804;2023-04-24T04:47:43;22.20;99.90
57576;DHT22;43412;-33.800;150.804;2023-04-24T04:50:11;22.20;99.90
57576;DHT22;43412;-33.800;150.804;2023-04-24T04:52:40;22.10;99.90
57576;DHT22;43412;-33.800;150.804;2023-04-24T04:55:07;21.90;99.90
57576;DHT22;43412;-33.800;150.804;2023-04-24T04:57:35;22.00;99.90
57576;DHT22;43412;-33.800;150.804;2023-04-24T05:00:02;22.00;99.90
57576;DHT22;43412;-33.800;150.804;2023-04-24T05:02:30;22.00;99.90
57576;DHT22;43412;-33.800;150.804;2023-04-24T05:04:57;21.80;99.90
57576;DHT22;43412;-33.800;150.804;2023-04-24T05:07:25;21.50;99.90
57576;DHT22;43412;-33.800;150.804;2023-04-24T05:09:52;21.20;99.90
57576;DHT22;43412;-33.800;150.804;2023-04-24T05:12:22;20.80;99.90
57576;DHT22;43412;-33.800;150.804;2023-04-24T05:14:50;20.50;99.90
57576;DHT22;43412;-33.800;150.804;2023-04-24T05:17:17;20.10;99.90
57576;DHT22;43412;-33.800;150.804;2023-04-24T05:19:45;19.90;99.90
57576;DHT22;43412;-33.800;150.804;2023-04-24T05:22:12;19.70;99.90
57576;DHT22;43412;-33.800;150.804;2023-04-24T05:24:40;19.70;99.90
57576;DHT22;43412;-33.800;150.804;2023-04-24T05:27:07;19.80;99.90
57576;DHT22;43412;-33.800;150.804;2023-04-24T05:29:34;19.80;99.90
57576;DHT22;43412;-33.800;150.804;2023-04-24T05:32:02;19.80;99.90
57576;DHT22;43412;-33.800;150.804;2023-04-24T05:34:29;19.90;99.90
57576;DHT22;43412;-33.800;150.804;2023-04-24T05:37:00;20.00;99.90
57576;DHT22;43412;-33.800;150.804;2023-04-24T05:39:27;20.20;99.90
57576;DHT22;43412;-33.800;150.804;2023-04-24T05:41:55;20.40;99.90
57576;DHT22;43412;-33.800;150.804;2023-04-24T05:44:24;20.60;99.90
57576;DHT22;43412;-33.800;150.804;2023-04-24T05:46:52;20.80;99.90
57576;DHT22;43412;-33.800;150.804;2023-04-24T05:49:21;20.90;99.90
57576;DHT22;43412;-33.800;150.804;2023-04-24T05:51:48;21.10;99.90
57576;DHT22;43412;-33.800;150.804;2023-04-24T05:54:15;21.20;99.90
57576;DHT22;43412;-33.800;150.804;2023-04-24T05:56:42;21.20;99.90
57576;DHT22;43412;-33.800;150.804;2023-04-24T05:59:10;21.20;99.90
57576;DHT22;43412;-33.800;150.804;2023-04-24T06:01:37;21.20;99.90
57576;DHT22;43412;-33.800;150.804;2023-04-24T06:04:05;21.20;99.90
57576;DHT22;43412;-33.800;150.804;2023-04-24T06:06:33;21.10;99.90
57576;DHT22;43412;-33.800;150.804;2023-04-24T06:09:01;21.10;99.90
57576;DHT22;43412;-33.800;150.804;2023-04-24T06:11:29;21.00;99.90
57576;DHT22;43412;-33.800;150.804;2023-04-24T06:13:56;20.90;99.90
57576;DHT22;43412;-33.800;150.804;2023-04-24T06:16:24;20.90;99.90
57576;DHT22;43412;-33.800;150.804;2023-04-24T06:18:51;20.80;99.90
57576;DHT22;43412;-33.800;150.804;2023-04-24T06:21:18;20.90;99.90
57576;DHT22;43412;-33.800;150.804;2023-04-24T06:23:46;20.90;99.90
57576;DHT22;43412;-33.800;150.804;2023-04-24T06:26:13;20.90;99.90
57576;DHT22;43412;-33.800;150.804;2023-04-24T06:28:41;20.90;99.90
57576;DHT22;43412;-33.800;150.804;2023-04-24T06:31:08;20.90;99.90
57576;DHT22;43412;-33.800;150.804;2023-04-24T06:33:36;20.90;99.90
57576;DHT22;43412;-33.800;150.804;2023-04-24T06:36:06;20.90;99.90
57576;DHT22;43412;-33.800;150.804;2023-04-24T06:38:34;20.90;99.90
57576;DHT22;43412;-33.800;150.804;2023-04-24T06:41:01;20.80;99.90
57576;DHT22;43412;-33.800;150.804;2023-04-24T06:43:29;20.80;99.90
57576;DHT22;43412;-33.800;150.804;2023-04-24T06:45:58;20.70;99.90
57576;DHT22;43412;-33.800;150.804;2023-04-24T06:48:25;20.70;99.90
57576;DHT22;43412;-33.800;150.804;2023-04-24T06:50:53;20.60;99.90
57576;DHT22;43412;-33.800;150.804;2023-04-24T06:53:20;20.60;99.90
57576;DHT22;43412;-33.800;150.804;2023-04-24T06:55:47;20.60;99.90
57576;DHT22;43412;-33.800;150.804;2023-04-24T06:58:15;20.60;99.90
57576;DHT22;43412;-33.800;150.804;2023-04-24T07:00:42;20.70;99.90
57576;DHT22;43412;-33.800;150.804;2023-04-24T07:03:09;20.70;99.90
57576;DHT22;43412;-33.800;150.804;2023-04-24T07:05:37;20.70;99.90
57576;DHT22;43412;-33.800;150.804;2023-04-24T07:08:04;20.80;99.90
57576;DHT22;43412;-33.800;150.804;2023-04-24T07:10:33;20.80;99.90
57576;DHT22;43412;-33.800;150.804;2023-04-24T07:13:02;20.90;99.90
57576;DHT22;43412;-33.800;150.804;2023-04-24T07:15:29;21.00;99.90
57576;DHT22;43412;-33.800;150.804;2023-04-24T07:17:57;21.00;99.90
57576;DHT22;43412;-33.800;150.804;2023-04-24T07:20:24;21.00;99.90
57576;DHT22;43412;-33.800;150.804;2023-04-24T07:22:52;20.90;99.90
57576;DHT22;43412;-33.800;150.804;2023-04-24T07:25:20;20.90;99.90
57576;DHT22;43412;-33.800;150.804;2023-04-24T07:27:48;20.80;99.90
57576;DHT22;43412;-33.800;150.804;2023-04-24T07:30:15;20.70;99.90
57576;DHT22;43412;-33.800;150.804;2023-04-24T07:32:42;20.60;99.90
57576;DHT22;43412;-33.800;150.804;2023-04-24T07:35:10;20.50;99.90
57576;DHT22;43412;-33.800;150.804;2023-04-24T07:37:37;20.50;99.90
57576;DHT22;43412;-33.800;150.804;2023-04-24T07:40:05;20.30;99.90
57576;DHT22;43412;-33.800;150.804;2023-04-24T07:42:33;20.20;99.90
57576;DHT22;43412;-33.800;150.804;2023-04-24T07:45:01;20.10;99.90
57576;DHT22;43412;-33.800;150.804;2023-04-24T07:47:28;20.00;99.90
57576;DHT22;43412;-33.800;150.804;2023-04-24T07:49:56;19.90;99.90
57576;DHT22;43412;-33.800;150.804;2023-04-24T07:52:23;19.80;99.90
57576;DHT22;43412;-33.800;150.804;2023-04-24T07:54:51;19.80;99.90
57576;DHT22;43412;-33.800;150.804;2023-04-24T07:57:25;19.70;99.90
57576;DHT22;43412;-33.800;150.804;2023-04-24T07:59:52;19.70;99.90
57576;DHT22;43412;-33.800;150.804;2023-04-24T08:02:19;19.60;99.90
57576;DHT22;43412;-33.800;150.804;2023-04-24T08:04:55;19.50;99.90
57576;DHT22;43412;-33.800;150.804;2023-04-24T08:07:24;19.50;99.90
57576;DHT22;43412;-33.800;150.804;2023-04-24T08:09:51;19.50;99.90
57576;DHT22;43412;-33.800;150.804;2023-04-24T08:12:18;19.50;99.90
57576;DHT22;43412;-33.800;150.804;2023-04-24T08:14:46;19.50;99.90
57576;DHT22;43412;-33.800;150.804;2023-04-24T08:17:17;19.40;99.90
57576;DHT22;43412;-33.800;150.804;2023-04-24T08:19:44;19.40;99.90
57576;DHT22;43412;-33.800;150.804;2023-04-24T08:22:17;19.40;99.90
57576;DHT22;43412;-33.800;150.804;2023-04-24T08:24:45;19.40;99.90
57576;DHT22;43412;-33.800;150.804;2023-04-24T08:27:12;19.30;99.90
57576;DHT22;43412;-33.800;150.804;2023-04-24T08:29:40;19.30;99.90
57576;DHT22;43412;-33.800;150.804;2023-04-24T08:32:07;19.30;99.90
57576;DHT22;43412;-33.800;150.804;2023-04-24T08:34:34;19.30;99.90
57576;DHT22;43412;-33.800;150.804;2023-04-24T08:37:02;19.20;99.90
57576;DHT22;43412;-33.800;150.804;2023-04-24T08:39:29;19.30;99.90
57576;DHT22;43412;-33.800;150.804;2023-04-24T08:41:57;19.30;99.90
57576;DHT22;43412;-33.800;150.804;2023-04-24T08:44:33;19.30;99.90
57576;DHT22;43412;-33.800;150.804;2023-04-24T08:47:02;19.20;99.90
57576;DHT22;43412;-33.800;150.804;2023-04-24T08:49:30;19.20;99.90
57576;DHT22;43412;-33.800;150.804;2023-04-24T08:51:58;19.20;99.90
57576;DHT22;43412;-33.800;150.804;2023-04-24T08:54:26;19.20;99.90
57576;DHT22;43412;-33.800;150.804;2023-04-24T08:56:55;19.10;99.90
57576;DHT22;43412;-33.800;150.804;2023-04-24T08:59:22;19.10;99.90
57576;DHT22;43412;-33.800;150.804;2023-04-24T09:01:50;19.00;99.90
57576;DHT22;43412;-33.800;150.804;2023-04-24T09:04:19;18.90;99.90
57576;DHT22;43412;-33.800;150.804;2023-04-24T09:06:49;18.80;99.90
57576;DHT22;43412;-33.800;150.804;2023-04-24T09:09:17;18.70;99.90
57576;DHT22;43412;-33.800;150.804;2023-04-24T09:11:45;18.70;99.90
57576;DHT22;43412;-33.800;150.804;2023-04-24T09:14:13;18.60;99.90
57576;DHT22;43412;-33.800;150.804;2023-04-24T09:16:41;18.50;99.90
57576;DHT22;43412;-33.800;150.804;2023-04-24T09:19:08;18.50;99.90
57576;DHT22;43412;-33.800;150.804;2023-04-24T09:21:36;18.50;99.90
57576;DHT22;43412;-33.800;150.804;2023-04-24T09:24:08;18.50;99.90
57576;DHT22;43412;-33.800;150.804;2023-04-24T09:26:41;18.40;99.90
57576;DHT22;43412;-33.800;150.804;2023-04-24T09:29:17;18.40;99.90
57576;DHT22;43412;-33.800;150.804;2023-04-24T09:31:46;18.40;99.90
57576;DHT22;43412;-33.800;150.804;2023-04-24T09:34:13;18.40;99.90
57576;DHT22;43412;-33.800;150.804;2023-04-24T09:36:42;18.50;99.90
57576;DHT22;43412;-33.800;150.804;2023-04-24T09:39:12;18.40;99.90
57576;DHT22;43412;-33.800;150.804;2023-04-24T09:41:46;18.40;99.90
57576;DHT22;43412;-33.800;150.804;2023-04-24T09:44:16;18.40;99.90
57576;DHT22;43412;-33.800;150.804;2023-04-24T09:46:48;18.50;99.90
57576;DHT22;43412;-33.800;150.804;2023-04-24T09:49:21;18.50;99.90
57576;DHT22;43412;-33.800;150.804;2023-04-24T09:51:49;18.50;99.90
57576;DHT22;43412;-33.800;150.804;2023-04-24T09:54:17;18.50;99.90
57576;DHT22;43412;-33.800;150.804;2023-04-24T09:56:46;18.50;99.90
57576;DHT22;43412;-33.800;150.804;2023-04-24T09:59:18;18.50;99.90
57576;DHT22;43412;-33.800;150.804;2023-04-24T10:01:46;18.40;99.90
57576;DHT22;43412;-33.800;150.804;2023-04-24T10:06:45;18.50;99.90
57576;DHT22;43412;-33.800;150.804;2023-04-24T10:09:12;18.40;99.90
57576;DHT22;43412;-33.800;150.804;2023-04-24T10:11:49;18.50;99.90
57576;DHT22;43412;-33.800;150.804;2023-04-24T10:14:18;18.50;99.90
57576;DHT22;43412;-33.800;150.804;2023-04-24T10:16:47;18.50;99.90
57576;DHT22;43412;-33.800;150.804;2023-04-24T10:19:16;18.50;99.90
57576;DHT22;43412;-33.800;150.804;2023-04-24T10:21:47;18.40;99.90
57576;DHT22;43412;-33.800;150.804;2023-04-24T10:24:16;18.40;99.90
57576;DHT22;43412;-33.800;150.804;2023-04-24T10:26:44;18.40;99.90
57576;DHT22;43412;-33.800;150.804;2023-04-24T10:29:13;18.30;99.90
57576;DHT22;43412;-33.800;150.804;2023-04-24T10:31:42;18.30;99.90
57576;DHT22;43412;-33.800;150.804;2023-04-24T10:34:12;18.20;99.90
57576;DHT22;43412;-33.800;150.804;2023-04-24T10:36:48;18.10;99.90
57576;DHT22;43412;-33.800;150.804;2023-04-24T10:39:18;18.00;99.90
57576;DHT22;43412;-33.800;150.804;2023-04-24T10:41:45;17.90;99.90
57576;DHT22;43412;-33.800;150.804;2023-04-24T10:44:14;17.90;99.90
57576;DHT22;43412;-33.800;150.804;2023-04-24T10:46:53;17.80;99.90
57576;DHT22;43412;-33.800;150.804;2023-04-24T10:49:31;17.70;99.90
57576;DHT22;43412;-33.800;150.804;2023-04-24T10:52:03;17.50;99.90
57576;DHT22;43412;-33.800;150.804;2023-04-24T10:54:42;17.40;99.90
57576;DHT22;43412;-33.800;150.804;2023-04-24T10:59:50;17.20;99.90
57576;DHT22;43412;-33.800;150.804;2023-04-24T11:02:18;17.20;99.90
57576;DHT22;43412;-33.800;150.804;2023-04-24T11:04:45;17.10;99.90
57576;DHT22;43412;-33.800;150.804;2023-04-24T11:07:13;17.10;99.90
57576;DHT22;43412;-33.800;150.804;2023-04-24T11:09:42;17.10;99.90
57576;DHT22;43412;-33.800;150.804;2023-04-24T11:12:11;17.10;99.90
57576;DHT22;43412;-33.800;150.804;2023-04-24T11:15:01;17.00;99.90
57576;DHT22;43412;-33.800;150.804;2023-04-24T11:20:07;17.10;99.90
57576;DHT22;43412;-33.800;150.804;2023-04-24T11:22:38;17.20;99.90
57576;DHT22;43412;-33.800;150.804;2023-04-24T11:25:09;17.20;99.90
57576;DHT22;43412;-33.800;150.804;2023-04-24T11:27:43;17.30;99.90
57576;DHT22;43412;-33.800;150.804;2023-04-24T11:30:11;17.40;99.90
57576;DHT22;43412;-33.800;150.804;2023-04-24T11:32:42;17.40;99.90
57576;DHT22;43412;-33.800;150.804;2023-04-24T11:37:53;17.50;99.90
57576;DHT22;43412;-33.800;150.804;2023-04-24T11:40:22;17.60;99.90
57576;DHT22;43412;-33.800;150.804;2023-04-24T11:42:55;17.60;99.90
57576;DHT22;43412;-33.800;150.804;2023-04-24T11:45:26;17.60;99.90
57576;DHT22;43412;-33.800;150.804;2023-04-24T11:47:54;17.70;99.90
57576;DHT22;43412;-33.800;150.804;2023-04-24T11:50:26;17.70;99.90
57576;DHT22;43412;-33.800;150.804;2023-04-24T11:52:55;17.80;99.90
57576;DHT22;43412;-33.800;150.804;2023-04-24T11:55:23;17.80;99.90
57576;DHT22;43412;-33.800;150.804;2023-04-24T11:57:57;17.80;99.90
57576;DHT22;43412;-33.800;150.804;2023-04-24T12:00:27;17.80;99.90
57576;DHT22;43412;-33.800;150.804;2023-04-24T12:03:11;17.80;99.90
57576;DHT22;43412;-33.800;150.804;2023-04-24T12:05:39;17.80;99.90
57576;DHT22;43412;-33.800;150.804;2023-04-24T12:08:07;17.80;99.90
57576;DHT22;43412;-33.800;150.804;2023-04-24T12:10:34;17.80;99.90
57576;DHT22;43412;-33.800;150.804;2023-04-24T12:13:02;17.90;99.90
57576;DHT22;43412;-33.800;150.804;2023-04-24T12:15:29;17.90;99.90
57576;DHT22;43412;-33.800;150.804;2023-04-24T12:17:57;17.90;99.90
57576;DHT22;43412;-33.800;150.804;2023-04-24T12:20:30;17.90;99.90
57576;DHT22;43412;-33.800;150.804;2023-04-24T12:23:00;17.80;99.90
57576;DHT22;43412;-33.800;150.804;2023-04-24T12:25:29;17.80;99.90
57576;DHT22;43412;-33.800;150.804;2023-04-24T12:30:48;17.70;99.90
57576;DHT22;43412;-33.800;150.804;2023-04-24T12:33:21;17.70;99.90
57576;DHT22;43412;-33.800;150.804;2023-04-24T12:35:51;17.80;99.90
57576;DHT22;43412;-33.800;150.804;2023-04-24T12:38:26;17.80;99.90
57576;DHT22;43412;-33.800;150.804;2023-04-24T12:41:09;17.70;99.90
57576;DHT22;43412;-33.800;150.804;2023-04-24T12:43:37;17.70;99.90
57576;DHT22;43412;-33.800;150.804;2023-04-24T12:46:05;17.70;99.90
57576;DHT22;43412;-33.800;150.804;2023-04-24T12:48:32;17.80;99.90
57576;DHT22;43412;-33.800;150.804;2023-04-24T12:51:00;17.70;99.90
57576;DHT22;43412;-33.800;150.804;2023-04-24T12:53:28;17.70;99.90
57576;DHT22;43412;-33.800;150.804;2023-04-24T12:55:56;17.70;99.90
57576;DHT22;43412;-33.800;150.804;2023-04-24T12:58:24;17.80;99.90
57576;DHT22;43412;-33.800;150.804;2023-04-24T13:00:52;17.80;99.90
57576;DHT22;43412;-33.800;150.804;2023-04-24T13:03:19;17.80;99.90
57576;DHT22;43412;-33.800;150.804;2023-04-24T13:05:47;17.70;99.90
57576;DHT22;43412;-33.800;150.804;2023-04-24T13:08:14;17.80;99.90
57576;DHT22;43412;-33.800;150.804;2023-04-24T13:10:41;17.80;99.90
57576;DHT22;43412;-33.800;150.804;2023-04-24T13:13:09;17.80;99.90
57576;DHT22;43412;-33.800;150.804;2023-04-24T13:15:36;17.80;99.90
57576;DHT22;43412;-33.800;150.804;2023-04-24T13:18:03;17.80;99.90
57576;DHT22;43412;-33.800;150.804;2023-04-24T13:20:34;17.80;99.90
57576;DHT22;43412;-33.800;150.804;2023-04-24T13:23:06;17.70;99.90
57576;DHT22;43412;-33.800;150.804;2023-04-24T13:25:35;17.70;99.90
57576;DHT22;43412;-33.800;150.804;2023-04-24T13:28:05;17.70;99.90
57576;DHT22;43412;-33.800;150.804;2023-04-24T13:30:32;17.70;99.90
57576;DHT22;43412;-33.800;150.804;2023-04-24T13:33:00;17.70;99.90
57576;DHT22;43412;-33.800;150.804;2023-04-24T13:35:27;17.80;99.90
57576;DHT22;43412;-33.800;150.804;2023-04-24T13:37:55;17.80;99.90
57576;DHT22;43412;-33.800;150.804;2023-04-24T13:40:22;17.80;99.90
57576;DHT22;43412;-33.800;150.804;2023-04-24T13:42:50;17.70;99.90
57576;DHT22;43412;-33.800;150.804;2023-04-24T13:45:17;17.70;99.90
57576;DHT22;43412;-33.800;150.804;2023-04-24T13:47:44;17.70;99.90
57576;DHT22;43412;-33.800;150.804;2023-04-24T13:50:12;17.70;99.90
57576;DHT22;43412;-33.800;150.804;2023-04-24T13:52:39;17.70;99.90
57576;DHT22;43412;-33.800;150.804;2023-04-24T13:55:07;17.70;99.90
57576;DHT22;43412;-33.800;150.804;2023-04-24T13:57:34;17.70;99.90
57576;DHT22;43412;-33.800;150.804;2023-04-24T14:00:02;17.60;99.90
57576;DHT22;43412;-33.800;150.804;2023-04-24T14:02:30;17.60;99.90
57576;DHT22;43412;-33.800;150.804;2023-04-24T14:04:57;17.60;99.90
57576;DHT22;43412;-33.800;150.804;2023-04-24T14:07:25;17.50;99.90
57576;DHT22;43412;-33.800;150.804;2023-04-24T14:09:52;17.50;99.90
57576;DHT22;43412;-33.800;150.804;2023-04-24T14:12:19;17.50;99.90
57576;DHT22;43412;-33.800;150.804;2023-04-24T14:14:48;17.50;99.90
57576;DHT22;43412;-33.800;150.804;2023-04-24T14:17:15;17.40;99.90
57576;DHT22;43412;-33.800;150.804;2023-04-24T14:19:42;17.40;99.90
57576;DHT22;43412;-33.800;150.804;2023-04-24T14:22:10;17.40;99.90
57576;DHT22;43412;-33.800;150.804;2023-04-24T14:24:37;17.40;99.90
57576;DHT22;43412;-33.800;150.804;2023-04-24T14:27:05;17.40;99.90
57576;DHT22;43412;-33.800;150.804;2023-04-24T14:29:32;17.40;99.90
57576;DHT22;43412;-33.800;150.804;2023-04-24T14:31:59;17.40;99.90
57576;DHT22;43412;-33.800;150.804;2023-04-24T14:34:27;17.40;99.90
57576;DHT22;43412;-33.800;150.804;2023-04-24T14:36:54;17.40;99.90
57576;DHT22;43412;-33.800;150.804;2023-04-24T14:39:21;17.40;99.90
57576;DHT22;43412;-33.800;150.804;2023-04-24T14:41:49;17.40;99.90
57576;DHT22;43412;-33.800;150.804;2023-04-24T14:44:16;17.40;99.90
57576;DHT22;43412;-33.800;150.804;2023-04-24T14:46:43;17.40;99.90
57576;DHT22;43412;-33.800;150.804;2023-04-24T14:49:11;17.40;99.90
57576;DHT22;43412;-33.800;150.804;2023-04-24T14:51:39;17.40;99.90
57576;DHT22;43412;-33.800;150.804;2023-04-24T14:54:07;17.50;99.90
57576;DHT22;43412;-33.800;150.804;2023-04-24T14:56:34;17.40;99.90
57576;DHT22;43412;-33.800;150.804;2023-04-24T14:59:02;17.50;99.90
57576;DHT22;43412;-33.800;150.804;2023-04-24T15:01:30;17.50;99.90
57576;DHT22;43412;-33.800;150.804;2023-04-24T15:03:57;17.40;99.90
57576;DHT22;43412;-33.800;150.804;2023-04-24T15:06:25;17.50;99.90
57576;DHT22;43412;-33.800;150.804;2023-04-24T15:08:52;17.50;99.90